createdAt,value
2018-07-20T00:00:17.194Z,18.20
2018-07-20T00:02:46.519Z,18.20
2018-07-20T00:05:15.862Z,18.10
2018-07-20T00:07:45.224Z,17.60
2018-07-20T00:10:14.570Z,17.50
2018-07-20T00:12:44.331Z,17.80
2018-07-20T00:15:13.663Z,17.90
2018-07-20T00:20:11.903Z,17.80
2018-07-20T00:22:41.301Z,17.70
2018-07-20T00:25:10.630Z,17.70
2018-07-20T00:27:39.950Z,17.70
2018-07-20T00:30:09.287Z,17.90
2018-07-20T00:32:38.647Z,18.00
2018-07-20T00:35:07.988Z,17.90
2018-07-20T00:37:37.313Z,17.60
2018-07-20T00:40:06.652Z,17.40
2018-07-20T00:45:04.823Z,17.60
2018-07-20T00:47:34.175Z,17.70
2018-07-20T00:50:04.047Z,17.90
2018-07-20T00:55:02.406Z,17.80
2018-07-20T00:57:31.828Z,17.80
2018-07-20T01:00:01.148Z,17.70
2018-07-20T01:02:30.556Z,17.70
2018-07-20T01:09:57.726Z,17.50
2018-07-20T01:12:27.099Z,17.40
2018-07-20T01:14:56.420Z,17.10
2018-07-20T01:19:54.705Z,16.80
2018-07-20T01:22:24.059Z,16.80
2018-07-20T01:24:53.636Z,16.80
2018-07-20T01:27:22.998Z,16.70
2018-07-20T01:29:52.323Z,16.70
2018-07-20T01:32:21.684Z,16.60
2018-07-20T01:34:51.014Z,16.70
2018-07-20T01:39:49.194Z,15.90
2018-07-20T01:42:18.552Z,15.60
2018-07-20T01:44:47.866Z,15.90
2018-07-20T01:47:17.478Z,16.40
2018-07-20T01:49:46.783Z,16.60
2018-07-20T01:52:16.098Z,16.60
2018-07-20T01:54:45.447Z,16.80
2018-07-20T01:57:14.746Z,16.80
2018-07-20T01:59:44.110Z,16.80
2018-07-20T02:02:13.413Z,17.00
2018-07-20T02:04:42.778Z,16.70
2018-07-20T02:07:12.122Z,16.50
2018-07-20T02:09:41.527Z,16.70
2018-07-20T02:12:11.164Z,16.70
2018-07-20T02:14:40.507Z,16.60
2018-07-20T02:17:09.836Z,16.50
2018-07-20T02:24:36.911Z,16.50
2018-07-20T02:27:06.257Z,16.40
2018-07-20T02:29:35.637Z,16.20
2018-07-20T02:34:33.855Z,15.80
2018-07-20T02:37:03.192Z,15.80
2018-07-20T02:42:01.392Z,16.30
2018-07-20T02:44:30.768Z,16.40
2018-07-20T02:47:00.104Z,16.30
2018-07-20T02:49:29.432Z,16.40
2018-07-20T02:51:58.816Z,16.30
2018-07-20T02:54:28.127Z,16.20
2018-07-20T02:56:57.491Z,16.20
2018-07-20T02:59:26.790Z,15.90
2018-07-20T03:01:56.151Z,15.90
2018-07-20T03:04:25.482Z,15.40
2018-07-20T03:06:54.858Z,15.50
2018-07-20T03:09:24.224Z,15.80
2018-07-20T03:11:53.582Z,15.90
2018-07-20T03:14:22.995Z,15.90
2018-07-20T03:16:52.360Z,15.70
2018-07-20T03:19:21.677Z,16.00
2018-07-20T03:21:51.037Z,15.80
2018-07-20T03:24:20.343Z,15.60
2018-07-20T03:26:49.695Z,15.80
2018-07-20T03:29:19.038Z,15.90
2018-07-20T03:31:48.379Z,15.90
2018-07-20T03:34:17.708Z,15.90
2018-07-20T03:36:47.066Z,15.60
2018-07-20T03:39:16.367Z,15.40
2018-07-20T03:41:45.727Z,15.40
2018-07-20T03:44:15.055Z,15.70
2018-07-20T03:46:44.419Z,15.90
2018-07-20T03:49:13.714Z,15.90
2018-07-20T03:51:43.027Z,15.80
2018-07-20T03:54:12.375Z,15.70
2018-07-20T03:56:41.717Z,15.60
2018-07-20T03:59:11.031Z,15.40
2018-07-20T04:01:40.407Z,15.50
2018-07-20T04:04:09.752Z,15.70
2018-07-20T04:06:39.103Z,15.80
2018-07-20T04:09:09.546Z,15.90
2018-07-20T04:11:39.030Z,15.70
2018-07-20T04:14:08.607Z,15.70
2018-07-20T04:16:38.122Z,15.60
2018-07-20T04:19:07.551Z,15.50
2018-07-20T04:21:36.899Z,15.50
2018-07-20T04:24:06.245Z,15.70
2018-07-20T04:26:35.543Z,15.70
2018-07-20T04:29:04.949Z,15.90
2018-07-20T04:31:34.272Z,16.00
2018-07-20T04:34:03.614Z,16.10
2018-07-20T04:36:32.994Z,16.10
2018-07-20T04:41:31.263Z,16.10
2018-07-20T04:44:00.581Z,16.30
2018-07-20T04:46:29.947Z,16.50
2018-07-20T04:48:59.259Z,16.50
2018-07-20T04:51:28.604Z,16.30
2018-07-20T04:56:26.864Z,16.40
2018-07-20T04:58:56.263Z,16.60
2018-07-20T05:01:25.617Z,16.70
2018-07-20T05:03:55.094Z,16.90
2018-07-20T05:06:24.462Z,16.90
2018-07-20T05:08:53.817Z,17.10
2018-07-20T05:11:23.236Z,17.50
2018-07-20T05:13:52.515Z,17.90
2018-07-20T05:16:21.862Z,18.10
2018-07-20T05:18:51.183Z,18.20
2018-07-20T05:21:20.533Z,18.40
2018-07-20T05:23:49.879Z,18.50
2018-07-20T05:26:19.219Z,18.60
2018-07-20T05:28:48.555Z,18.70
2018-07-20T05:31:18.089Z,18.90
2018-07-20T05:33:47.403Z,19.10
2018-07-20T05:36:16.758Z,19.40
2018-07-20T05:38:46.082Z,19.50
2018-07-20T05:41:15.440Z,19.60
2018-07-20T05:43:45.890Z,19.90
2018-07-20T05:48:44.095Z,20.20
2018-07-20T05:51:13.641Z,20.00
2018-07-20T05:53:42.983Z,20.20
2018-07-20T05:56:12.643Z,20.40
2018-07-20T05:58:41.985Z,20.60
2018-07-20T06:01:11.315Z,20.70
2018-07-20T06:03:40.670Z,20.70
2018-07-20T06:06:10.199Z,20.80
2018-07-20T06:08:39.575Z,20.80
2018-07-20T06:11:08.886Z,21.20
2018-07-20T06:13:38.276Z,21.40
2018-07-20T06:16:07.607Z,21.40
2018-07-20T06:21:08.382Z,21.60
2018-07-20T06:23:37.845Z,21.60
2018-07-20T06:26:07.199Z,21.50
2018-07-20T06:28:36.571Z,22.00
2018-07-20T06:33:35.396Z,22.10
2018-07-20T06:36:05.348Z,22.10
2018-07-20T06:38:34.666Z,22.30
2018-07-20T06:41:04.055Z,22.60
2018-07-20T06:43:33.375Z,22.70
2018-07-20T06:46:02.716Z,22.90
2018-07-20T06:48:32.047Z,23.00
2018-07-20T06:51:01.431Z,23.40
2018-07-20T06:55:59.672Z,24.00
2018-07-20T06:58:28.963Z,24.40
2018-07-20T07:00:58.327Z,24.50
2018-07-20T07:03:27.625Z,24.50
2018-07-20T07:05:56.975Z,23.70
2018-07-20T07:10:55.240Z,24.00
2018-07-20T07:13:24.581Z,24.10
2018-07-20T07:15:53.943Z,23.80
2018-07-20T07:28:19.281Z,24.10
2018-07-20T07:30:48.608Z,24.90
2018-07-20T07:33:17.979Z,24.90
2018-07-20T07:35:47.347Z,24.70
2018-07-20T07:43:14.404Z,24.10
2018-07-20T07:45:43.729Z,23.90
2018-07-20T07:48:13.063Z,24.10
2018-07-20T07:50:42.405Z,24.20
2018-07-20T07:53:11.776Z,24.30
2018-07-20T07:55:41.066Z,24.40
2018-07-20T07:58:10.403Z,24.30
2018-07-20T08:00:39.807Z,24.20
2018-07-20T08:03:09.207Z,24.30
2018-07-20T08:05:38.561Z,24.50
2018-07-20T08:08:07.957Z,24.40
2018-07-20T08:10:37.323Z,24.60
2018-07-20T08:13:06.686Z,24.60
2018-07-20T08:15:36.054Z,24.30
2018-07-20T08:18:05.448Z,24.20
2018-07-20T08:20:34.851Z,24.30
2018-07-20T08:23:04.216Z,24.40
2018-07-20T08:25:33.643Z,24.90
2018-07-20T08:28:02.979Z,25.80
2018-07-20T08:30:32.352Z,26.50
2018-07-20T08:33:01.747Z,25.90
2018-07-20T08:38:00.020Z,25.60
2018-07-20T08:40:29.843Z,26.30
2018-07-20T08:42:59.505Z,27.00
2018-07-20T08:45:30.010Z,27.50
2018-07-20T08:47:59.603Z,27.20
2018-07-20T08:50:29.442Z,27.40
2018-07-20T08:52:59.167Z,28.20
2018-07-20T08:55:28.921Z,28.70
2018-07-20T08:57:58.509Z,29.20
2018-07-20T09:00:27.916Z,29.00
2018-07-20T09:02:57.377Z,28.80
2018-07-20T09:05:27.283Z,29.20
2018-07-20T09:07:56.686Z,29.50
2018-07-20T09:10:26.043Z,28.40
2018-07-20T09:12:55.383Z,28.30
2018-07-20T09:20:22.610Z,29.30
2018-07-20T09:22:51.963Z,30.20
2018-07-20T09:25:21.488Z,31.10
2018-07-20T09:27:50.926Z,31.60
2018-07-20T09:30:20.417Z,31.30
2018-07-20T09:32:49.795Z,31.60
2018-07-20T09:37:48.105Z,31.60
2018-07-20T09:40:17.544Z,30.80
2018-07-20T09:42:47.051Z,31.50
2018-07-20T09:45:16.351Z,31.90
2018-07-20T09:47:45.732Z,32.20
2018-07-20T09:50:15.049Z,32.70
2018-07-20T09:52:44.399Z,32.60
2018-07-20T09:55:13.822Z,32.20
2018-07-20T10:00:12.132Z,30.60
2018-07-20T10:02:41.483Z,30.60
2018-07-20T10:05:10.800Z,30.80
2018-07-20T10:07:40.330Z,30.70
2018-07-20T10:10:09.665Z,30.80
2018-07-20T10:15:07.890Z,32.20
2018-07-20T10:17:37.246Z,32.80
2018-07-20T10:20:06.553Z,33.30
2018-07-20T10:25:04.770Z,33.50
2018-07-20T10:27:34.115Z,33.80
2018-07-20T10:30:03.835Z,34.40
2018-07-20T10:32:33.208Z,34.20
2018-07-20T10:35:02.520Z,34.40
2018-07-20T10:37:31.923Z,34.30
2018-07-20T10:40:01.249Z,34.40
2018-07-20T10:47:28.711Z,34.70
2018-07-20T10:49:58.042Z,34.60
2018-07-20T10:52:27.400Z,34.40
2018-07-20T10:54:56.816Z,34.80
2018-07-20T10:57:26.117Z,34.40
2018-07-20T10:59:55.456Z,34.70
2018-07-20T11:02:24.784Z,34.50
2018-07-20T11:04:54.156Z,34.20
2018-07-20T11:09:52.392Z,34.30
2018-07-20T11:12:21.726Z,34.60
2018-07-20T11:14:51.036Z,35.20
2018-07-20T11:17:20.393Z,35.30
2018-07-20T11:19:49.867Z,34.90
2018-07-20T11:22:19.197Z,34.40
2018-07-20T11:24:48.552Z,33.40
2018-07-20T11:27:17.905Z,32.80
2018-07-20T11:29:47.275Z,32.20
2018-07-20T11:32:16.982Z,32.40
2018-07-20T11:34:46.897Z,32.30
2018-07-20T11:37:16.747Z,32.40
2018-07-20T11:44:43.920Z,33.00
2018-07-20T11:47:13.239Z,33.30
2018-07-20T11:49:42.605Z,33.90
2018-07-20T11:52:12.108Z,34.10
2018-07-20T11:54:41.436Z,34.30
2018-07-20T11:59:39.844Z,35.20
2018-07-20T12:02:10.172Z,35.70
2018-07-20T12:04:39.490Z,35.90
2018-07-20T12:07:08.844Z,36.50
2018-07-20T12:09:38.228Z,36.60
2018-07-20T12:12:07.637Z,36.50
2018-07-20T12:14:36.992Z,36.50
2018-07-20T12:17:06.359Z,35.90
2018-07-20T12:19:35.799Z,35.80
2018-07-20T12:22:05.108Z,35.50
2018-07-20T12:24:34.432Z,34.70
2018-07-20T12:27:03.791Z,34.30
2018-07-20T12:29:33.122Z,34.50
2018-07-20T12:32:02.463Z,33.20
2018-07-20T12:34:31.780Z,32.20
2018-07-20T12:37:01.132Z,31.80
2018-07-20T12:39:30.451Z,31.60
2018-07-20T12:47:03.833Z,33.70
2018-07-20T12:49:33.154Z,33.80
2018-07-20T12:52:02.454Z,33.90
2018-07-20T12:54:31.779Z,33.40
2018-07-20T12:57:01.102Z,34.50
2018-07-20T12:59:30.451Z,34.10
2018-07-20T13:01:59.839Z,34.20
2018-07-20T13:04:29.203Z,33.50
2018-07-20T13:06:58.539Z,32.80
2018-07-20T13:09:27.928Z,32.80
2018-07-20T13:11:57.325Z,32.80
2018-07-20T13:14:26.647Z,31.90
2018-07-20T13:16:55.941Z,31.40
2018-07-20T13:19:25.287Z,31.70
2018-07-20T13:21:54.583Z,31.70
2018-07-20T13:24:23.928Z,31.80
2018-07-20T13:26:53.245Z,32.00
2018-07-20T13:29:22.614Z,32.20
2018-07-20T13:31:51.928Z,32.10
2018-07-20T13:34:21.295Z,31.90
2018-07-20T13:36:50.651Z,31.40
2018-07-20T13:39:20.007Z,31.10
2018-07-20T13:41:49.984Z,31.00
2018-07-20T13:44:19.398Z,31.20
2018-07-20T13:46:49.257Z,31.50
2018-07-20T13:49:18.970Z,31.20
2018-07-20T13:51:48.351Z,31.30
2018-07-20T13:54:17.647Z,31.70
2018-07-20T13:56:46.992Z,31.40
2018-07-20T13:59:16.288Z,31.70
2018-07-20T14:01:45.627Z,31.90
2018-07-20T14:04:15.845Z,31.90
2018-07-20T14:06:45.232Z,31.90
2018-07-20T14:09:14.571Z,31.80
2018-07-20T14:11:43.943Z,31.50
2018-07-20T14:14:13.239Z,31.50
2018-07-20T14:16:42.701Z,31.50
2018-07-20T14:19:12.024Z,31.30
2018-07-20T14:21:41.559Z,31.10
2018-07-20T14:24:10.892Z,31.10
2018-07-20T14:26:40.351Z,31.00
2018-07-20T14:31:38.729Z,31.00
2018-07-20T14:34:08.019Z,31.00
2018-07-20T14:36:38.146Z,31.10
2018-07-20T14:41:37.319Z,30.30
2018-07-20T14:46:35.741Z,30.50
2018-07-20T14:49:05.118Z,30.20
2018-07-20T14:51:34.498Z,30.00
2018-07-20T14:54:03.839Z,29.70
2018-07-20T14:59:02.100Z,30.00
2018-07-20T15:01:31.480Z,30.00
2018-07-20T15:04:00.807Z,30.20
2018-07-20T15:06:30.203Z,29.90
2018-07-20T15:08:59.568Z,29.70
2018-07-20T15:16:26.784Z,29.70
2018-07-20T15:18:56.116Z,29.90
2018-07-20T15:21:25.423Z,29.90
2018-07-20T15:23:54.801Z,29.80
2018-07-20T15:26:24.133Z,29.70
2018-07-20T15:28:53.500Z,29.60
2018-07-20T15:31:22.855Z,29.60
2018-07-20T15:33:52.246Z,29.90
2018-07-20T15:36:21.556Z,30.10
2018-07-20T15:38:50.936Z,30.10
2018-07-20T15:41:20.268Z,29.90
2018-07-20T15:43:49.628Z,29.50
2018-07-20T15:46:19.219Z,29.40
2018-07-20T15:48:48.499Z,29.50
2018-07-20T15:51:17.790Z,29.60
2018-07-20T15:53:47.195Z,29.50
2018-07-20T15:56:16.519Z,29.50
2018-07-20T15:58:45.844Z,29.60
2018-07-20T16:01:15.143Z,29.60
2018-07-20T16:03:44.483Z,29.60
2018-07-20T16:06:13.864Z,29.70
2018-07-20T16:08:43.247Z,29.70
2018-07-20T16:11:12.558Z,29.70
2018-07-20T16:13:41.875Z,29.70
2018-07-20T16:16:11.224Z,29.60
2018-07-20T16:21:09.399Z,29.60
2018-07-20T16:23:38.700Z,29.50
2018-07-20T16:26:08.214Z,29.80
2018-07-20T16:28:37.440Z,29.60
2018-07-20T16:31:06.820Z,29.60
2018-07-20T16:33:36.159Z,29.60
2018-07-20T16:36:05.511Z,29.60
2018-07-20T16:38:34.871Z,29.60
2018-07-20T16:43:33.098Z,29.30
2018-07-20T16:46:02.426Z,29.40
2018-07-20T16:48:31.763Z,29.30
2018-07-20T16:51:01.104Z,29.30
2018-07-20T16:53:30.465Z,29.30
2018-07-20T16:55:59.824Z,29.10
2018-07-20T16:58:29.127Z,29.10
2018-07-20T17:00:58.551Z,29.00
2018-07-20T17:03:27.903Z,29.00
2018-07-20T17:05:57.248Z,29.10
2018-07-20T17:08:26.588Z,29.00
2018-07-20T17:10:55.955Z,28.90
2018-07-20T17:13:25.286Z,28.90
2018-07-20T17:15:54.671Z,29.00
2018-07-20T17:18:24.004Z,29.00
2018-07-20T17:20:53.338Z,29.10
2018-07-20T17:23:22.656Z,29.20
2018-07-20T17:25:51.969Z,29.10
2018-07-20T17:28:21.292Z,29.00
2018-07-20T17:30:50.606Z,29.00
2018-07-20T17:33:19.932Z,28.80
2018-07-20T17:35:49.266Z,28.80
2018-07-20T17:38:18.679Z,28.60
2018-07-20T17:40:48.466Z,28.60
2018-07-20T17:43:17.855Z,28.60
2018-07-20T17:45:47.208Z,28.50
2018-07-20T17:48:16.571Z,28.60
2018-07-20T17:50:45.913Z,28.50
2018-07-20T17:53:15.372Z,28.40
2018-07-20T17:55:44.709Z,28.40
2018-07-20T17:58:14.077Z,28.40
2018-07-20T18:00:43.415Z,28.40
2018-07-20T18:03:12.844Z,28.30
2018-07-20T18:05:42.170Z,28.30
2018-07-20T18:08:11.533Z,28.30
2018-07-20T18:10:40.883Z,28.30
2018-07-20T18:13:10.223Z,28.20
2018-07-20T18:15:39.549Z,28.20
2018-07-20T18:18:08.910Z,28.20
2018-07-20T18:20:38.211Z,28.10
2018-07-20T18:23:07.888Z,28.10
2018-07-20T18:25:37.289Z,28.00
2018-07-20T18:28:06.600Z,27.90
2018-07-20T18:33:05.012Z,27.80
2018-07-20T18:35:34.355Z,27.80
2018-07-20T18:38:03.684Z,27.70
2018-07-20T18:40:33.207Z,27.30
2018-07-20T18:43:02.967Z,27.10
2018-07-20T18:45:32.743Z,27.00
2018-07-20T18:48:02.239Z,26.80
2018-07-20T18:50:31.592Z,26.70
2018-07-20T18:53:01.511Z,26.70
2018-07-20T18:55:31.440Z,26.60
2018-07-20T18:58:01.041Z,26.50
2018-07-20T19:00:30.989Z,26.40
2018-07-20T19:03:00.447Z,26.20
2018-07-20T19:05:29.973Z,26.10
2018-07-20T19:07:59.667Z,25.90
2018-07-20T19:10:29.855Z,25.60
2018-07-20T19:12:59.507Z,25.50
2018-07-20T19:15:29.148Z,25.50
2018-07-20T19:17:58.839Z,25.60
2018-07-20T19:20:28.380Z,25.60
2018-07-20T19:22:58.836Z,25.70
2018-07-20T19:25:29.204Z,25.80
2018-07-20T19:27:59.417Z,25.80
2018-07-20T19:30:29.377Z,25.80
2018-07-20T19:32:58.751Z,25.80
2018-07-20T19:35:28.142Z,25.80
2018-07-20T19:37:57.574Z,25.80
2018-07-20T19:40:26.968Z,25.90
2018-07-20T19:42:56.331Z,25.70
2018-07-20T19:45:25.647Z,25.50
2018-07-20T19:52:53.628Z,24.70
2018-07-20T19:55:23.374Z,24.40
2018-07-20T19:57:53.200Z,24.20
2018-07-20T20:00:22.900Z,23.90
2018-07-20T20:02:52.483Z,23.80
2018-07-20T20:05:21.858Z,23.80
2018-07-20T20:07:51.273Z,23.80
2018-07-20T20:12:49.869Z,23.70
2018-07-20T20:15:19.512Z,23.60
2018-07-20T20:17:49.249Z,23.10
2018-07-20T20:20:18.852Z,22.80
2018-07-20T20:22:48.587Z,22.80
2018-07-20T20:25:18.639Z,22.50
2018-07-20T20:27:48.148Z,21.90
2018-07-20T20:30:17.615Z,22.10
2018-07-20T20:32:47.218Z,22.20
2018-07-20T20:35:16.695Z,22.10
2018-07-20T20:37:46.311Z,22.00
2018-07-20T20:40:15.984Z,21.90
2018-07-20T20:42:45.472Z,21.90
2018-07-20T20:45:14.819Z,21.70
2018-07-20T20:50:13.110Z,21.80
2018-07-20T20:52:42.451Z,22.20
2018-07-20T20:55:11.798Z,22.30
2018-07-20T20:57:41.143Z,22.40
2018-07-20T21:00:10.715Z,22.40
2018-07-20T21:02:40.062Z,22.40
2018-07-20T21:05:09.462Z,22.50
2018-07-20T21:07:38.883Z,22.50
2018-07-20T21:10:08.311Z,22.40
2018-07-20T21:12:37.657Z,22.20
2018-07-20T21:15:07.873Z,21.80
2018-07-20T21:17:37.214Z,21.40
2018-07-20T21:20:06.570Z,20.80
2018-07-20T21:22:35.899Z,20.70
2018-07-20T21:25:06.262Z,20.70
2018-07-20T21:30:05.027Z,20.70
2018-07-20T21:32:34.444Z,20.90
2018-07-20T21:35:03.760Z,20.90
2018-07-20T21:40:02.350Z,21.30
2018-07-20T21:42:31.763Z,21.40
2018-07-20T21:45:01.087Z,21.50
2018-07-20T21:49:59.339Z,21.30
2018-07-20T21:52:28.691Z,21.00
2018-07-20T21:54:58.231Z,20.70
2018-07-20T21:59:56.476Z,20.60
2018-07-20T22:02:25.836Z,20.50
2018-07-20T22:07:24.184Z,20.60
2018-07-20T22:09:54.002Z,20.50
2018-07-20T22:14:52.422Z,20.50
2018-07-20T22:17:21.829Z,20.30
2018-07-20T22:19:51.161Z,20.00
2018-07-20T22:22:20.630Z,19.90
2018-07-20T22:24:49.939Z,19.80
2018-07-20T22:27:19.314Z,19.80
2018-07-20T22:29:48.677Z,19.70
2018-07-20T22:32:18.007Z,19.80
2018-07-20T22:34:47.431Z,19.80
2018-07-20T22:37:17.012Z,19.90
2018-07-20T22:39:46.419Z,19.90
2018-07-20T22:42:15.775Z,19.90
2018-07-20T22:44:45.143Z,19.80
2018-07-20T22:47:14.480Z,20.00
2018-07-20T22:49:43.871Z,19.90
2018-07-20T22:52:13.243Z,20.00
2018-07-20T22:54:42.594Z,20.00
2018-07-20T22:57:11.913Z,19.90
2018-07-20T22:59:41.301Z,20.00
2018-07-20T23:02:10.680Z,19.80
2018-07-20T23:07:08.903Z,19.80
2018-07-20T23:09:38.307Z,19.80
2018-07-20T23:12:07.688Z,19.70
2018-07-20T23:14:37.064Z,19.80
2018-07-20T23:17:06.438Z,19.80
2018-07-20T23:24:33.587Z,19.70
2018-07-20T23:27:02.935Z,19.80
2018-07-20T23:32:01.224Z,19.90
2018-07-20T23:34:30.589Z,20.00
2018-07-20T23:37:00.008Z,19.90
2018-07-20T23:39:29.348Z,19.80
2018-07-20T23:41:58.727Z,19.70
2018-07-20T23:44:28.071Z,19.80
2018-07-20T23:46:57.821Z,20.00
2018-07-20T23:49:27.119Z,20.10
2018-07-20T23:51:56.464Z,20.20
2018-07-20T23:54:25.770Z,20.20
2018-07-20T23:56:55.110Z,20.20
2018-07-20T23:59:24.409Z,20.20
